sensor_id;sensor_type;location;lat;lon;timestamp;P1;durP1;ratioP1;P2;durP2;ratioP2
32295;SDS011;18781;51.550;5.418;2022-08-14T00:02:25;6.80;;;4.57;;
32295;SDS011;18781;51.550;5.418;2022-08-14T00:04:51;12.23;;;4.88;;
32295;SDS011;18781;51.550;5.418;2022-08-14T00:07:16;11.73;;;4.80;;
32295;SDS011;18781;51.550;5.418;2022-08-14T00:09:42;5.25;;;4.75;;
32295;SDS011;18781;51.550;5.418;2022-08-14T00:12:09;8.30;;;4.93;;
32295;SDS011;18781;51.550;5.418;2022-08-14T00:14:35;8.15;;;4.90;;
32295;SDS011;18781;51.550;5.418;2022-08-14T00:17:02;7.10;;;5.10;;
32295;SDS011;18781;51.550;5.418;2022-08-14T00:19:28;7.28;;;5.05;;
32295;SDS011;18781;51.550;5.418;2022-08-14T00:21:54;11.27;;;4.97;;
32295;SDS011;18781;51.550;5.418;2022-08-14T00:24:20;11.20;;;4.97;;
32295;SDS011;18781;51.550;5.418;2022-08-14T00:26:46;9.20;;;5.65;;
32295;SDS011;18781;51.550;5.418;2022-08-14T00:29:12;13.20;;;5.60;;
32295;SDS011;18781;51.550;5.418;2022-08-14T00:31:37;6.68;;;5.63;;
32295;SDS011;18781;51.550;5.418;2022-08-14T00:34:03;6.40;;;5.20;;
32295;SDS011;18781;51.550;5.418;2022-08-14T00:36:29;7.45;;;5.85;;
32295;SDS011;18781;51.550;5.418;2022-08-14T00:38:55;9.75;;;6.20;;
32295;SDS011;18781;51.550;5.418;2022-08-14T00:41:21;7.65;;;6.20;;
32295;SDS011;18781;51.550;5.418;2022-08-14T00:43:46;8.75;;;5.82;;
32295;SDS011;18781;51.550;5.418;2022-08-14T00:46:12;7.32;;;6.32;;
32295;SDS011;18781;51.550;5.418;2022-08-14T00:48:38;8.80;;;5.90;;
32295;SDS011;18781;51.550;5.418;2022-08-14T00:51:05;8.77;;;5.43;;
32295;SDS011;18781;51.550;5.418;2022-08-14T00:53:34;8.65;;;6.53;;
32295;SDS011;18781;51.550;5.418;2022-08-14T00:56:02;11.57;;;7.18;;
32295;SDS011;18781;51.550;5.418;2022-08-14T00:58:28;12.55;;;7.03;;
32295;SDS011;18781;51.550;5.418;2022-08-14T01:01:02;11.53;;;6.73;;
32295;SDS011;18781;51.550;5.418;2022-08-14T01:03:33;10.95;;;6.90;;
32295;SDS011;18781;51.550;5.418;2022-08-14T01:06:01;10.70;;;7.15;;
32295;SDS011;18781;51.550;5.418;2022-08-14T01:08:28;11.75;;;7.95;;
32295;SDS011;18781;51.550;5.418;2022-08-14T01:10:55;11.57;;;7.80;;
32295;SDS011;18781;51.550;5.418;2022-08-14T01:13:23;11.20;;;7.88;;
32295;SDS011;18781;51.550;5.418;2022-08-14T01:15:54;10.45;;;8.10;;
32295;SDS011;18781;51.550;5.418;2022-08-14T01:18:21;11.52;;;9.25;;
32295;SDS011;18781;51.550;5.418;2022-08-14T01:21:07;10.88;;;7.97;;
32295;SDS011;18781;51.550;5.418;2022-08-14T01:23:39;12.73;;;8.20;;
32295;SDS011;18781;51.550;5.418;2022-08-14T01:26:10;10.77;;;7.65;;
32295;SDS011;18781;51.550;5.418;2022-08-14T01:28:36;9.95;;;7.93;;
32295;SDS011;18781;51.550;5.418;2022-08-14T01:31:07;9.50;;;7.05;;
32295;SDS011;18781;51.550;5.418;2022-08-14T01:33:36;11.75;;;7.35;;
32295;SDS011;18781;51.550;5.418;2022-08-14T01:36:04;10.48;;;7.57;;
32295;SDS011;18781;51.550;5.418;2022-08-14T01:38:31;12.52;;;7.82;;
32295;SDS011;18781;51.550;5.418;2022-08-14T01:41:01;11.75;;;7.60;;
32295;SDS011;18781;51.550;5.418;2022-08-14T01:43:47;11.25;;;7.50;;
32295;SDS011;18781;51.550;5.418;2022-08-14T01:46:15;9.23;;;6.93;;
32295;SDS011;18781;51.550;5.418;2022-08-14T01:48:43;13.52;;;7.72;;
32295;SDS011;18781;51.550;5.418;2022-08-14T01:51:09;10.43;;;7.15;;
32295;SDS011;18781;51.550;5.418;2022-08-14T01:53:40;9.05;;;7.25;;
32295;SDS011;18781;51.550;5.418;2022-08-14T01:56:11;8.40;;;7.43;;
32295;SDS011;18781;51.550;5.418;2022-08-14T01:58:42;8.93;;;7.10;;
32295;SDS011;18781;51.550;5.418;2022-08-14T02:01:11;10.73;;;7.65;;
32295;SDS011;18781;51.550;5.418;2022-08-14T02:03:39;12.35;;;7.68;;
32295;SDS011;18781;51.550;5.418;2022-08-14T02:06:05;9.80;;;7.57;;
32295;SDS011;18781;51.550;5.418;2022-08-14T02:08:32;11.52;;;7.45;;
32295;SDS011;18781;51.550;5.418;2022-08-14T02:11:01;8.02;;;7.00;;
32295;SDS011;18781;51.550;5.418;2022-08-14T02:13:54;11.45;;;7.43;;
32295;SDS011;18781;51.550;5.418;2022-08-14T02:16:24;7.60;;;6.75;;
32295;SDS011;18781;51.550;5.418;2022-08-14T02:18:54;7.88;;;7.07;;
32295;SDS011;18781;51.550;5.418;2022-08-14T02:21:21;8.23;;;6.43;;
32295;SDS011;18781;51.550;5.418;2022-08-14T02:23:47;11.98;;;6.63;;
32295;SDS011;18781;51.550;5.418;2022-08-14T02:26:24;7.45;;;6.63;;
32295;SDS011;18781;51.550;5.418;2022-08-14T02:29:14;7.68;;;6.72;;
32295;SDS011;18781;51.550;5.418;2022-08-14T02:31:43;9.15;;;7.10;;
32295;SDS011;18781;51.550;5.418;2022-08-14T02:36:44;10.38;;;8.20;;
32295;SDS011;18781;51.550;5.418;2022-08-14T02:39:12;9.48;;;7.90;;
32295;SDS011;18781;51.550;5.418;2022-08-14T02:41:38;9.32;;;8.13;;
32295;SDS011;18781;51.550;5.418;2022-08-14T02:44:05;8.75;;;7.68;;
32295;SDS011;18781;51.550;5.418;2022-08-14T02:49:00;11.27;;;8.43;;
32295;SDS011;18781;51.550;5.418;2022-08-14T02:51:26;13.38;;;8.30;;
32295;SDS011;18781;51.550;5.418;2022-08-14T02:53:53;15.55;;;9.70;;
32295;SDS011;18781;51.550;5.418;2022-08-14T02:56:19;10.98;;;8.13;;
32295;SDS011;18781;51.550;5.418;2022-08-14T02:58:46;10.13;;;8.73;;
32295;SDS011;18781;51.550;5.418;2022-08-14T03:01:16;11.93;;;8.93;;
32295;SDS011;18781;51.550;5.418;2022-08-14T03:03:45;15.38;;;10.07;;
32295;SDS011;18781;51.550;5.418;2022-08-14T03:06:12;14.77;;;10.15;;
32295;SDS011;18781;51.550;5.418;2022-08-14T03:08:39;13.23;;;9.60;;
32295;SDS011;18781;51.550;5.418;2022-08-14T03:11:07;10.13;;;9.02;;
32295;SDS011;18781;51.550;5.418;2022-08-14T03:13:35;13.73;;;9.85;;
32295;SDS011;18781;51.550;5.418;2022-08-14T03:16:04;16.75;;;10.55;;
32295;SDS011;18781;51.550;5.418;2022-08-14T03:18:31;12.95;;;9.25;;
32295;SDS011;18781;51.550;5.418;2022-08-14T03:20:58;12.35;;;9.48;;
32295;SDS011;18781;51.550;5.418;2022-08-14T03:23:26;11.40;;;8.93;;
32295;SDS011;18781;51.550;5.418;2022-08-14T03:25:51;13.23;;;9.25;;
32295;SDS011;18781;51.550;5.418;2022-08-14T03:28:17;13.02;;;9.55;;
32295;SDS011;18781;51.550;5.418;2022-08-14T03:30:42;10.98;;;9.00;;
32295;SDS011;18781;51.550;5.418;2022-08-14T03:33:09;15.43;;;10.30;;
32295;SDS011;18781;51.550;5.418;2022-08-14T03:35:36;13.05;;;10.55;;
32295;SDS011;18781;51.550;5.418;2022-08-14T03:38:07;16.15;;;10.88;;
32295;SDS011;18781;51.550;5.418;2022-08-14T03:40:34;13.73;;;10.20;;
32295;SDS011;18781;51.550;5.418;2022-08-14T03:43:05;11.77;;;10.25;;
32295;SDS011;18781;51.550;5.418;2022-08-14T03:45:32;12.75;;;9.88;;
32295;SDS011;18781;51.550;5.418;2022-08-14T03:47:59;11.60;;;10.40;;
32295;SDS011;18781;51.550;5.418;2022-08-14T03:50:28;12.83;;;10.63;;
32295;SDS011;18781;51.550;5.418;2022-08-14T03:52:56;16.23;;;11.23;;
32295;SDS011;18781;51.550;5.418;2022-08-14T03:55:23;16.17;;;10.90;;
32295;SDS011;18781;51.550;5.418;2022-08-14T03:57:49;13.35;;;10.73;;
32295;SDS011;18781;51.550;5.418;2022-08-14T04:00:14;17.58;;;10.88;;
32295;SDS011;18781;51.550;5.418;2022-08-14T04:02:40;11.55;;;10.10;;
32295;SDS011;18781;51.550;5.418;2022-08-14T04:05:07;20.25;;;11.18;;
32295;SDS011;18781;51.550;5.418;2022-08-14T04:07:34;14.30;;;11.20;;
32295;SDS011;18781;51.550;5.418;2022-08-14T04:10:03;13.70;;;10.23;;
32295;SDS011;18781;51.550;5.418;2022-08-14T04:12:30;20.05;;;11.38;;
32295;SDS011;18781;51.550;5.418;2022-08-14T04:14:56;12.13;;;10.43;;
32295;SDS011;18781;51.550;5.418;2022-08-14T04:17:22;18.10;;;11.27;;
32295;SDS011;18781;51.550;5.418;2022-08-14T04:19:48;14.63;;;10.60;;
32295;SDS011;18781;51.550;5.418;2022-08-14T04:22:14;14.45;;;11.07;;
32295;SDS011;18781;51.550;5.418;2022-08-14T04:24:39;13.32;;;10.95;;
32295;SDS011;18781;51.550;5.418;2022-08-14T04:27:06;13.57;;;11.80;;
32295;SDS011;18781;51.550;5.418;2022-08-14T04:29:35;16.92;;;11.27;;
32295;SDS011;18781;51.550;5.418;2022-08-14T04:32:02;19.05;;;11.07;;
32295;SDS011;18781;51.550;5.418;2022-08-14T04:34:29;18.15;;;11.88;;
32295;SDS011;18781;51.550;5.418;2022-08-14T04:36:55;14.75;;;11.18;;
32295;SDS011;18781;51.550;5.418;2022-08-14T04:39:39;13.98;;;11.50;;
32295;SDS011;18781;51.550;5.418;2022-08-14T04:42:30;12.40;;;11.07;;
32295;SDS011;18781;51.550;5.418;2022-08-14T04:45:15;15.05;;;11.52;;
32295;SDS011;18781;51.550;5.418;2022-08-14T04:47:42;17.58;;;11.32;;
32295;SDS011;18781;51.550;5.418;2022-08-14T04:50:26;18.48;;;11.90;;
32295;SDS011;18781;51.550;5.418;2022-08-14T04:52:53;14.52;;;11.40;;
32295;SDS011;18781;51.550;5.418;2022-08-14T04:55:18;17.13;;;11.85;;
32295;SDS011;18781;51.550;5.418;2022-08-14T04:57:44;17.80;;;11.80;;
32295;SDS011;18781;51.550;5.418;2022-08-14T05:00:12;15.73;;;11.35;;
32295;SDS011;18781;51.550;5.418;2022-08-14T05:02:38;15.18;;;12.05;;
32295;SDS011;18781;51.550;5.418;2022-08-14T05:05:04;14.95;;;12.77;;
32295;SDS011;18781;51.550;5.418;2022-08-14T05:07:30;17.80;;;13.05;;
32295;SDS011;18781;51.550;5.418;2022-08-14T05:09:55;16.90;;;12.75;;
32295;SDS011;18781;51.550;5.418;2022-08-14T05:12:21;15.88;;;12.55;;
32295;SDS011;18781;51.550;5.418;2022-08-14T05:14:46;17.42;;;12.23;;
32295;SDS011;18781;51.550;5.418;2022-08-14T05:17:12;17.52;;;12.68;;
32295;SDS011;18781;51.550;5.418;2022-08-14T05:19:38;15.32;;;13.20;;
32295;SDS011;18781;51.550;5.418;2022-08-14T05:22:04;18.45;;;13.82;;
32295;SDS011;18781;51.550;5.418;2022-08-14T05:24:31;18.10;;;12.73;;
32295;SDS011;18781;51.550;5.418;2022-08-14T05:26:57;20.10;;;13.20;;
32295;SDS011;18781;51.550;5.418;2022-08-14T05:29:24;18.27;;;12.93;;
32295;SDS011;18781;51.550;5.418;2022-08-14T05:31:50;17.58;;;12.70;;
32295;SDS011;18781;51.550;5.418;2022-08-14T05:34:15;14.75;;;12.93;;
32295;SDS011;18781;51.550;5.418;2022-08-14T05:36:41;15.05;;;13.32;;
32295;SDS011;18781;51.550;5.418;2022-08-14T05:39:06;17.77;;;13.60;;
32295;SDS011;18781;51.550;5.418;2022-08-14T05:41:32;17.60;;;14.27;;
32295;SDS011;18781;51.550;5.418;2022-08-14T05:43:58;22.00;;;14.52;;
32295;SDS011;18781;51.550;5.418;2022-08-14T05:46:24;18.08;;;14.60;;
32295;SDS011;18781;51.550;5.418;2022-08-14T05:48:51;17.52;;;14.68;;
32295;SDS011;18781;51.550;5.418;2022-08-14T05:51:18;19.33;;;15.45;;
32295;SDS011;18781;51.550;5.418;2022-08-14T05:53:44;18.88;;;16.05;;
32295;SDS011;18781;51.550;5.418;2022-08-14T05:56:10;18.67;;;15.35;;
32295;SDS011;18781;51.550;5.418;2022-08-14T05:58:36;19.85;;;17.15;;
32295;SDS011;18781;51.550;5.418;2022-08-14T06:01:02;22.65;;;18.77;;
32295;SDS011;18781;51.550;5.418;2022-08-14T06:03:28;25.50;;;17.23;;
32295;SDS011;18781;51.550;5.418;2022-08-14T06:05:53;22.33;;;18.80;;
32295;SDS011;18781;51.550;5.418;2022-08-14T06:08:27;27.60;;;20.40;;
32295;SDS011;18781;51.550;5.418;2022-08-14T06:10:55;33.90;;;21.75;;
32295;SDS011;18781;51.550;5.418;2022-08-14T06:13:34;23.73;;;21.23;;
32295;SDS011;18781;51.550;5.418;2022-08-14T06:16:02;27.02;;;22.20;;
32295;SDS011;18781;51.550;5.418;2022-08-14T06:18:27;30.75;;;22.85;;
32295;SDS011;18781;51.550;5.418;2022-08-14T06:20:53;30.00;;;23.10;;
32295;SDS011;18781;51.550;5.418;2022-08-14T06:23:18;27.83;;;21.67;;
32295;SDS011;18781;51.550;5.418;2022-08-14T06:25:44;29.27;;;21.90;;
32295;SDS011;18781;51.550;5.418;2022-08-14T06:28:16;28.40;;;24.70;;
32295;SDS011;18781;51.550;5.418;2022-08-14T06:30:43;34.22;;;25.30;;
32295;SDS011;18781;51.550;5.418;2022-08-14T06:33:09;39.95;;;26.75;;
32295;SDS011;18781;51.550;5.418;2022-08-14T06:35:34;31.20;;;26.05;;
32295;SDS011;18781;51.550;5.418;2022-08-14T06:38:00;35.35;;;26.60;;
32295;SDS011;18781;51.550;5.418;2022-08-14T06:40:26;30.60;;;24.13;;
32295;SDS011;18781;51.550;5.418;2022-08-14T06:42:54;30.00;;;24.23;;
32295;SDS011;18781;51.550;5.418;2022-08-14T06:45:21;31.23;;;23.60;;
32295;SDS011;18781;51.550;5.418;2022-08-14T06:47:47;28.55;;;21.48;;
32295;SDS011;18781;51.550;5.418;2022-08-14T06:50:17;27.02;;;22.85;;
32295;SDS011;18781;51.550;5.418;2022-08-14T06:52:43;24.25;;;21.15;;
32295;SDS011;18781;51.550;5.418;2022-08-14T06:55:10;25.30;;;19.88;;
32295;SDS011;18781;51.550;5.418;2022-08-14T06:57:38;28.55;;;20.30;;
32295;SDS011;18781;51.550;5.418;2022-08-14T07:00:06;26.13;;;19.43;;
32295;SDS011;18781;51.550;5.418;2022-08-14T07:02:34;21.63;;;17.60;;
32295;SDS011;18781;51.550;5.418;2022-08-14T07:05:19;23.30;;;18.08;;
32295;SDS011;18781;51.550;5.418;2022-08-14T07:08:03;21.35;;;17.08;;
32295;SDS011;18781;51.550;5.418;2022-08-14T07:10:29;19.27;;;16.05;;
32295;SDS011;18781;51.550;5.418;2022-08-14T07:12:56;29.48;;;16.75;;
32295;SDS011;18781;51.550;5.418;2022-08-14T07:15:21;21.63;;;16.08;;
32295;SDS011;18781;51.550;5.418;2022-08-14T07:17:48;24.77;;;15.18;;
32295;SDS011;18781;51.550;5.418;2022-08-14T07:20:14;17.50;;;14.35;;
32295;SDS011;18781;51.550;5.418;2022-08-14T07:22:42;16.70;;;14.30;;
32295;SDS011;18781;51.550;5.418;2022-08-14T07:25:09;15.15;;;13.43;;
32295;SDS011;18781;51.550;5.418;2022-08-14T07:27:34;16.80;;;12.70;;
32295;SDS011;18781;51.550;5.418;2022-08-14T07:30:01;15.15;;;11.85;;
32295;SDS011;18781;51.550;5.418;2022-08-14T07:32:28;16.87;;;11.87;;
32295;SDS011;18781;51.550;5.418;2022-08-14T07:34:54;12.75;;;11.07;;
32295;SDS011;18781;51.550;5.418;2022-08-14T07:37:20;12.15;;;10.30;;
32295;SDS011;18781;51.550;5.418;2022-08-14T07:39:45;14.63;;;10.80;;
32295;SDS011;18781;51.550;5.418;2022-08-14T07:42:11;10.68;;;9.52;;
32295;SDS011;18781;51.550;5.418;2022-08-14T07:44:36;12.35;;;10.40;;
32295;SDS011;18781;51.550;5.418;2022-08-14T07:47:02;12.65;;;10.00;;
32295;SDS011;18781;51.550;5.418;2022-08-14T07:49:28;10.88;;;9.68;;
32295;SDS011;18781;51.550;5.418;2022-08-14T07:51:56;14.15;;;9.45;;
32295;SDS011;18781;51.550;5.418;2022-08-14T07:54:22;12.68;;;9.30;;
32295;SDS011;18781;51.550;5.418;2022-08-14T07:56:47;13.35;;;9.13;;
32295;SDS011;18781;51.550;5.418;2022-08-14T07:59:13;13.45;;;9.57;;
32295;SDS011;18781;51.550;5.418;2022-08-14T08:01:40;16.92;;;10.02;;
32295;SDS011;18781;51.550;5.418;2022-08-14T08:04:07;11.27;;;9.27;;
32295;SDS011;18781;51.550;5.418;2022-08-14T08:06:34;11.48;;;9.43;;
32295;SDS011;18781;51.550;5.418;2022-08-14T08:09:02;14.73;;;8.88;;
32295;SDS011;18781;51.550;5.418;2022-08-14T08:11:36;14.05;;;8.90;;
32295;SDS011;18781;51.550;5.418;2022-08-14T08:14:04;12.82;;;8.80;;
32295;SDS011;18781;51.550;5.418;2022-08-14T08:16:32;12.63;;;9.45;;
32295;SDS011;18781;51.550;5.418;2022-08-14T08:18:58;16.88;;;8.63;;
32295;SDS011;18781;51.550;5.418;2022-08-14T08:21:24;11.75;;;8.25;;
32295;SDS011;18781;51.550;5.418;2022-08-14T08:23:50;15.15;;;8.98;;
32295;SDS011;18781;51.550;5.418;2022-08-14T08:26:18;13.70;;;8.52;;
32295;SDS011;18781;51.550;5.418;2022-08-14T08:28:43;12.50;;;8.20;;
32295;SDS011;18781;51.550;5.418;2022-08-14T08:31:19;11.63;;;8.30;;
32295;SDS011;18781;51.550;5.418;2022-08-14T08:33:49;10.85;;;7.68;;
32295;SDS011;18781;51.550;5.418;2022-08-14T08:36:16;10.07;;;8.15;;
32295;SDS011;18781;51.550;5.418;2022-08-14T08:38:42;8.30;;;7.15;;
32295;SDS011;18781;51.550;5.418;2022-08-14T08:41:09;10.27;;;8.48;;
32295;SDS011;18781;51.550;5.418;2022-08-14T08:43:35;17.73;;;8.23;;
32295;SDS011;18781;51.550;5.418;2022-08-14T08:46:02;10.43;;;7.53;;
32295;SDS011;18781;51.550;5.418;2022-08-14T08:48:43;11.52;;;8.18;;
32295;SDS011;18781;51.550;5.418;2022-08-14T08:51:30;11.88;;;8.85;;
32295;SDS011;18781;51.550;5.418;2022-08-14T08:53:59;11.73;;;8.75;;
32295;SDS011;18781;51.550;5.418;2022-08-14T08:56:41;11.00;;;8.02;;
32295;SDS011;18781;51.550;5.418;2022-08-14T08:59:26;14.32;;;8.57;;
32295;SDS011;18781;51.550;5.418;2022-08-14T09:01:55;11.60;;;8.52;;
32295;SDS011;18781;51.550;5.418;2022-08-14T09:04:23;10.75;;;7.88;;
32295;SDS011;18781;51.550;5.418;2022-08-14T09:06:51;9.40;;;7.72;;
32295;SDS011;18781;51.550;5.418;2022-08-14T09:09:24;11.40;;;7.45;;
32295;SDS011;18781;51.550;5.418;2022-08-14T09:11:54;13.48;;;7.72;;
32295;SDS011;18781;51.550;5.418;2022-08-14T09:14:22;9.73;;;7.10;;
32295;SDS011;18781;51.550;5.418;2022-08-14T09:16:54;11.35;;;7.72;;
32295;SDS011;18781;51.550;5.418;2022-08-14T09:19:23;10.55;;;7.15;;
32295;SDS011;18781;51.550;5.418;2022-08-14T09:21:49;11.15;;;7.47;;
32295;SDS011;18781;51.550;5.418;2022-08-14T09:24:15;12.10;;;7.32;;
32295;SDS011;18781;51.550;5.418;2022-08-14T09:26:42;6.90;;;6.00;;
32295;SDS011;18781;51.550;5.418;2022-08-14T09:29:09;9.15;;;5.80;;
32295;SDS011;18781;51.550;5.418;2022-08-14T09:31:35;7.28;;;5.95;;
32295;SDS011;18781;51.550;5.418;2022-08-14T09:34:17;11.05;;;6.47;;
32295;SDS011;18781;51.550;5.418;2022-08-14T09:37:13;10.90;;;6.75;;
32295;SDS011;18781;51.550;5.418;2022-08-14T09:45:45;14.27;;;7.50;;
32295;SDS011;18781;51.550;5.418;2022-08-14T09:48:13;15.85;;;7.45;;
32295;SDS011;18781;51.550;5.418;2022-08-14T09:50:47;10.85;;;7.20;;
32295;SDS011;18781;51.550;5.418;2022-08-14T09:53:17;10.40;;;7.28;;
32295;SDS011;18781;51.550;5.418;2022-08-14T09:55:58;12.52;;;7.22;;
32295;SDS011;18781;51.550;5.418;2022-08-14T09:58:34;14.68;;;8.18;;
32295;SDS011;18781;51.550;5.418;2022-08-14T10:01:16;11.07;;;7.63;;
32295;SDS011;18781;51.550;5.418;2022-08-14T10:03:47;8.98;;;7.50;;
32295;SDS011;18781;51.550;5.418;2022-08-14T10:06:15;11.73;;;7.35;;
32295;SDS011;18781;51.550;5.418;2022-08-14T10:11:22;11.82;;;5.82;;
32295;SDS011;18781;51.550;5.418;2022-08-14T10:13:51;10.98;;;6.50;;
